createdAt,value
2018-09-04T00:03:10.029Z,72.03
2018-09-04T00:08:04.697Z,71.69
2018-09-04T00:12:58.805Z,71.14
2018-09-04T00:17:54.240Z,70.85
2018-09-04T00:22:48.290Z,70.68
2018-09-04T00:27:41.851Z,70.58
2018-09-04T00:32:35.553Z,68.85
2018-09-04T00:37:31.157Z,67.96
2018-09-04T00:42:25.975Z,67.54
2018-09-04T00:47:21.018Z,67.83
2018-09-04T00:52:14.697Z,67.44
2018-09-04T00:57:08.889Z,67.45
2018-09-04T01:02:02.998Z,66.38
2018-09-04T01:06:56.275Z,66.10
2018-09-04T01:11:50.468Z,65.99
2018-09-04T01:16:44.896Z,64.25
2018-09-04T01:21:39.206Z,63.38
2018-09-04T01:26:34.296Z,63.19
2018-09-04T01:31:28.472Z,61.37
2018-09-04T01:36:22.657Z,62.25
2018-09-04T01:41:16.796Z,62.05
2018-09-04T01:46:10.719Z,62.54
2018-09-04T01:51:05.827Z,62.93
2018-09-04T01:56:00.229Z,64.34
2018-09-04T02:00:54.666Z,64.49
2018-09-04T02:05:47.992Z,66.09
2018-09-04T02:10:42.556Z,66.56
2018-09-04T02:15:36.395Z,67.14
2018-09-04T02:20:29.676Z,67.72
2018-09-04T02:25:22.800Z,67.28
2018-09-04T02:30:15.824Z,67.93
2018-09-04T02:35:08.944Z,69.21
2018-09-04T02:40:02.063Z,70.81
2018-09-04T02:44:55.149Z,71.91
2018-09-04T02:49:48.246Z,72.35
2018-09-04T02:54:41.419Z,71.89
2018-09-04T02:59:34.489Z,70.85
2018-09-04T03:04:27.557Z,70.90
2018-09-04T03:09:20.563Z,70.47
2018-09-04T03:14:13.746Z,70.55
2018-09-04T03:19:06.766Z,70.65
2018-09-04T03:24:00.189Z,70.40
2018-09-04T03:28:53.202Z,70.40
2018-09-04T03:33:46.428Z,70.68
2018-09-04T03:38:39.612Z,70.73
2018-09-04T03:43:32.588Z,70.81
2018-09-04T03:48:25.922Z,71.04
2018-09-04T03:53:19.014Z,70.89
2018-09-04T03:58:11.996Z,70.59
2018-09-04T04:03:05.467Z,70.70
2018-09-04T04:07:58.584Z,70.42
2018-09-04T04:12:51.927Z,70.07
2018-09-04T04:17:45.145Z,69.14
2018-09-04T04:22:38.590Z,68.90
2018-09-04T04:27:31.726Z,68.66
2018-09-04T04:32:25.807Z,68.21
2018-09-04T04:37:18.919Z,67.27
2018-09-04T04:42:12.147Z,66.23
2018-09-04T04:47:05.340Z,62.86
2018-09-04T04:51:58.548Z,63.62
2018-09-04T04:56:51.604Z,61.37
2018-09-04T05:01:44.736Z,62.25
2018-09-04T05:06:37.902Z,62.75
2018-09-04T05:11:31.120Z,62.88
2018-09-04T05:16:24.425Z,62.66
2018-09-04T05:21:17.514Z,61.93
2018-09-04T05:26:10.815Z,62.63
2018-09-04T05:31:04.137Z,64.83
2018-09-04T05:35:58.699Z,63.20
2018-09-04T05:40:52.387Z,64.25
2018-09-04T05:45:46.173Z,64.57
2018-09-04T05:50:39.948Z,64.77
2018-09-04T05:55:33.631Z,64.93
2018-09-04T06:00:30.205Z,65.11
2018-09-04T06:05:23.933Z,64.46
2018-09-04T06:10:17.325Z,63.96
2018-09-04T06:15:11.125Z,62.98
2018-09-04T06:20:04.583Z,61.40
2018-09-04T06:24:58.152Z,60.87
2018-09-04T06:29:51.183Z,59.44
2018-09-04T06:34:44.513Z,60.27
2018-09-04T06:39:37.645Z,62.55
2018-09-04T06:44:30.762Z,63.16
2018-09-04T06:49:23.702Z,62.15
2018-09-04T06:54:17.105Z,61.92
2018-09-04T06:59:10.294Z,61.12
2018-09-04T07:04:03.401Z,60.28
2018-09-04T07:08:57.253Z,59.91
2018-09-04T07:13:50.359Z,59.36
2018-09-04T07:18:43.404Z,59.67
2018-09-04T07:23:36.619Z,59.61
2018-09-04T07:28:29.678Z,58.45
2018-09-04T07:33:23.189Z,56.76
2018-09-04T07:38:16.311Z,57.21
2018-09-04T07:43:09.464Z,54.61
2018-09-04T07:48:02.593Z,55.88
2018-09-04T07:52:55.729Z,54.98
2018-09-04T07:57:48.708Z,51.97
2018-09-04T08:02:41.759Z,49.51
2018-09-04T08:07:35.024Z,50.33
2018-09-04T08:12:28.274Z,49.23
2018-09-04T08:17:21.878Z,47.92
2018-09-04T08:22:14.943Z,47.61
2018-09-04T08:27:08.025Z,48.30
2018-09-04T08:32:01.396Z,46.79
2018-09-04T08:36:54.799Z,45.43
2018-09-04T08:41:47.858Z,46.08
2018-09-04T08:46:41.055Z,45.03
2018-09-04T08:51:34.054Z,44.41
2018-09-04T08:56:27.312Z,44.16
2018-09-04T09:01:20.523Z,42.22
2018-09-04T09:06:13.584Z,40.69
2018-09-04T09:11:06.687Z,41.57
2018-09-04T09:16:00.193Z,41.09
2018-09-04T09:20:53.323Z,39.89
2018-09-04T09:25:46.496Z,38.76
2018-09-04T09:30:39.568Z,39.08
2018-09-04T09:35:32.677Z,39.16
2018-09-04T09:40:25.719Z,37.63
2018-09-04T09:45:18.851Z,39.30
2018-09-04T09:50:12.006Z,40.35
2018-09-04T09:55:06.026Z,39.46
2018-09-04T09:59:59.352Z,38.66
2018-09-04T10:04:52.390Z,38.77
2018-09-04T10:09:45.549Z,40.07
2018-09-04T10:14:38.737Z,39.37
2018-09-04T10:19:32.071Z,40.55
2018-09-04T10:24:25.437Z,40.99
2018-09-04T10:29:18.444Z,39.95
2018-09-04T10:34:14.251Z,39.76
2018-09-04T10:39:13.767Z,40.76
2018-09-04T10:44:07.085Z,40.08
2018-09-04T10:49:00.334Z,38.67
2018-09-04T10:53:53.328Z,37.70
2018-09-04T10:58:46.957Z,36.64
2018-09-04T11:03:40.293Z,35.66
2018-09-04T11:08:34.324Z,36.31
2018-09-04T11:13:27.443Z,36.45
2018-09-04T11:18:20.740Z,36.71
2018-09-04T11:23:13.829Z,36.22
2018-09-04T11:28:07.070Z,37.28
2018-09-04T11:33:00.027Z,36.53
2018-09-04T11:37:53.232Z,36.80
2018-09-04T11:42:46.419Z,36.60
2018-09-04T11:47:41.205Z,35.95
2018-09-04T11:52:34.162Z,39.37
2018-09-04T11:57:27.488Z,39.30
2018-09-04T12:02:24.203Z,39.75
2018-09-04T12:07:17.388Z,41.42
2018-09-04T12:12:14.872Z,42.09
2018-09-04T12:17:08.622Z,41.54
2018-09-04T12:22:02.059Z,40.14
2018-09-04T12:26:55.221Z,39.78
2018-09-04T12:31:48.275Z,38.72
2018-09-04T12:36:41.504Z,39.41
2018-09-04T12:41:34.724Z,38.50
2018-09-04T12:46:30.166Z,39.24
2018-09-04T12:51:23.256Z,38.77
2018-09-04T12:56:16.383Z,37.98
2018-09-04T13:01:09.494Z,38.58
2018-09-04T13:06:02.529Z,37.80
2018-09-04T13:10:55.548Z,37.94
2018-09-04T13:15:50.890Z,38.73
2018-09-04T13:20:44.122Z,39.43
2018-09-04T13:25:37.092Z,39.43
2018-09-04T13:30:30.161Z,40.29
2018-09-04T13:35:23.200Z,40.67
2018-09-04T13:40:16.367Z,41.44
2018-09-04T13:45:09.558Z,41.52
2018-09-04T13:50:02.655Z,42.47
2018-09-04T13:54:55.982Z,42.62
2018-09-04T13:59:49.147Z,43.19
2018-09-04T14:04:42.593Z,44.51
2018-09-04T14:09:35.863Z,44.94
2018-09-04T14:14:28.913Z,44.87
2018-09-04T14:19:22.172Z,44.79
2018-09-04T14:24:15.174Z,44.29
2018-09-04T14:29:08.142Z,43.74
2018-09-04T14:34:01.335Z,43.85
2018-09-04T14:38:54.407Z,43.62
2018-09-04T14:43:47.573Z,42.99
2018-09-04T14:48:41.023Z,42.35
2018-09-04T14:53:37.582Z,43.28
2018-09-04T14:58:30.806Z,43.14
2018-09-04T15:08:58.826Z,42.89
2018-09-04T15:13:52.083Z,43.40
2018-09-04T15:18:45.879Z,44.21
2018-09-04T15:23:38.975Z,42.95
2018-09-04T15:28:32.059Z,43.16
2018-09-04T15:33:25.254Z,43.34
2018-09-04T15:38:18.308Z,44.05
2018-09-04T15:43:11.444Z,43.93
2018-09-04T15:48:04.960Z,43.83
2018-09-04T15:52:58.283Z,43.19
2018-09-04T15:57:51.516Z,43.10
2018-09-04T16:02:44.595Z,42.95
2018-09-04T16:07:37.639Z,42.58
2018-09-04T16:12:31.936Z,42.77
2018-09-04T16:17:25.553Z,41.92
2018-09-04T16:22:18.837Z,42.39
2018-09-04T16:27:11.979Z,43.12
2018-09-04T16:32:05.046Z,44.45
2018-09-04T16:36:58.183Z,44.26
2018-09-04T16:41:51.238Z,45.16
2018-09-04T16:46:44.446Z,45.00
2018-09-04T16:51:38.105Z,44.76
2018-09-04T16:56:31.244Z,45.18
2018-09-04T17:01:24.715Z,46.53
2018-09-04T17:06:17.841Z,46.81
2018-09-04T17:11:10.858Z,46.97
2018-09-04T17:16:03.891Z,47.79
2018-09-04T17:20:57.263Z,48.24
2018-09-04T17:25:50.476Z,47.76
2018-09-04T17:30:43.913Z,47.71
2018-09-04T17:35:36.950Z,48.15
2018-09-04T17:40:30.189Z,48.43
2018-09-04T17:45:23.356Z,47.75
2018-09-04T17:50:16.494Z,47.36
2018-09-04T17:55:09.951Z,48.00
2018-09-04T18:00:03.412Z,47.96
2018-09-04T18:04:56.711Z,48.05
2018-09-04T18:09:49.775Z,47.50
2018-09-04T18:14:42.811Z,46.72
2018-09-04T18:19:35.993Z,46.75
2018-09-04T18:24:29.401Z,47.92
2018-09-04T18:29:22.431Z,48.74
2018-09-04T18:34:15.516Z,49.31
2018-09-04T18:39:08.990Z,48.74
2018-09-04T18:44:02.056Z,48.31
2018-09-04T18:48:56.208Z,46.40
2018-09-04T18:53:49.239Z,45.17
2018-09-04T18:58:42.417Z,50.12
2018-09-04T19:03:35.526Z,66.07
2018-09-04T19:08:28.490Z,75.66
2018-09-04T19:13:21.887Z,78.97
2018-09-04T19:18:14.932Z,80.19
2018-09-04T19:23:07.964Z,81.17
2018-09-04T19:28:00.950Z,83.35
2018-09-04T19:32:53.943Z,81.21
2018-09-04T19:37:46.978Z,75.09
2018-09-04T19:42:41.137Z,70.79
2018-09-04T19:47:34.104Z,72.62
2018-09-04T19:52:27.043Z,73.87
2018-09-04T19:57:20.056Z,74.95
2018-09-04T20:02:13.235Z,77.52
2018-09-04T20:07:06.402Z,76.62
2018-09-04T20:11:59.743Z,75.95
2018-09-04T20:21:45.238Z,73.14
2018-09-04T20:26:38.307Z,71.20
2018-09-04T20:31:31.273Z,70.80
2018-09-04T20:36:24.388Z,72.48
2018-09-04T20:41:18.015Z,71.29
2018-09-04T20:46:11.085Z,69.89
2018-09-04T20:51:04.382Z,67.69
2018-09-04T20:55:57.375Z,63.57
2018-09-04T21:01:01.454Z,70.10
2018-09-04T21:06:05.623Z,78.16
2018-09-04T21:10:58.564Z,81.64
2018-09-04T21:15:51.480Z,85.91
2018-09-04T21:20:44.435Z,87.73
2018-09-04T21:25:37.677Z,88.30
2018-09-04T21:30:30.800Z,86.58
2018-09-04T21:35:24.094Z,90.30
2018-09-04T21:40:17.064Z,90.10
2018-09-04T21:45:10.121Z,90.30
2018-09-04T21:50:03.529Z,88.87
2018-09-04T21:54:56.603Z,86.88
2018-09-04T21:59:49.979Z,87.25
2018-09-04T22:04:43.544Z,88.00
2018-09-04T22:09:37.390Z,90.02
2018-09-04T22:14:30.604Z,90.79
2018-09-04T22:19:23.628Z,89.00
2018-09-04T22:24:16.605Z,90.80
2018-09-04T22:29:09.518Z,90.42
2018-09-04T22:34:02.479Z,86.98
2018-09-04T22:38:55.543Z,87.32
2018-09-04T22:43:48.537Z,84.43
2018-09-04T22:48:41.530Z,85.76
2018-09-04T22:53:34.558Z,86.63
2018-09-04T22:58:27.823Z,84.59
2018-09-04T23:03:20.912Z,83.56
2018-09-04T23:08:13.977Z,80.38
2018-09-04T23:13:06.925Z,83.12
2018-09-04T23:18:00.080Z,82.22
2018-09-04T23:22:53.003Z,83.09
2018-09-04T23:27:45.916Z,82.87
2018-09-04T23:32:39.690Z,83.19
2018-09-04T23:37:32.732Z,83.14
2018-09-04T23:42:30.300Z,82.93
2018-09-04T23:47:23.198Z,83.18
2018-09-04T23:52:16.253Z,83.36
2018-09-04T23:57:09.838Z,82.02
